Tokushima, Japan

6:56 PM JST on October 31, 2014 (GMT +0900)
Komatsujima AB | Change Station
CLOSE
Current Station
Airport
Location: Komatsujima AB,
Elevation: 16 ft
Nearby Weather Stations

Elev 16 ft 34.01 °N, 134.63 °E | Updated 20 minutes ago

Rain Showers
Showers Rain Mist
64 °F
Feels Like 64 °F
N
6
Wind Variable Wind from West

Today
High -- | Low -- °F
--% Chance of Precip.
Yesterday
High -- | Low -- °F
Precip. -- in
6:19 AM 5:10 PM
First Quarter, 53% visible
Pressure 30.12 in
Visibility 3.1 miles
Clouds Few 600 ft
Scattered Clouds 1200 ft
Mostly Cloudy 2500 ft
Dew Point 63 °F
Humidity 94%
Rainfall 0.00 in
Snow Depth Not available.
UV 0 out of 12
Pollen Not available.
Air Quality Not available.
Flu Activity Not available.
SPECI RJOP 310936Z 26005KT 220V290 5000 SHRA BR FEW006 SCT012 BKN025 18/17 Q1020 RMK 2ST006 4CU012 7CU025 A3012

More Conditions Fewer Conditions

Pressure 30.12 in
Visibility 3.1 miles
Clouds Few 600 ft
Scattered Clouds 1200 ft
Mostly Cloudy 2500 ft
Dew Point 63 °F
Humidity 94%
Rainfall 0.00 in
Snow Depth Not available.
UV 0 out of 12
Pollen Not available.
Air Quality Not available.
Flu Activity Not available.
SPECI RJOP 310936Z 26005KT 220V290 5000 SHRA BR FEW006 SCT012 BKN025 18/17 Q1020 RMK 2ST006 4CU012 7CU025 A3012

More Conditions Fewer Conditions

10-Day Weather Forecast

Almanac

Astronomy

Oct. 31, 2014 Rise Set
Actual Time
Civil Twilight
Nautical Twilight
Astronomical Twilight
Moon
Length of Visible Light
Length of Day
Tomorrow will be .
, % of the Moon is Illuminated

Today's Extremes

Country Highs Country Lows

Community

WunderPhotos

Upload Photos

1,766,577 photos uploaded!

WunderBlogs® & News

Nearby

Air Quality

  Air Quality AQ Index Pollutant
Not available.

Snow Depth

Station Depth Elevation

Earthquake Activity

City Distance Mag. Time & Date
Minimum magnitude displayed is 2.5.

Coastal Water Temperatures

Place Temperature

Nearby Weather Stations